sensor_id;sensor_type;location;lat;lon;timestamp;pressure;altitude;pressure_sealevel;temperature;humidity
83355;BME280;75108;50.882;5.984;2024-01-11T00:00:32;58227.56;;;-141.14;100.00
83355;BME280;75108;50.882;5.984;2024-01-11T00:02:57;58235.50;;;-141.14;100.00
83355;BME280;75108;50.882;5.984;2024-01-11T00:05:23;58255.34;;;-141.14;100.00
83355;BME280;75108;50.882;5.984;2024-01-11T00:07:48;58243.44;;;-141.14;100.00
83355;BME280;75108;50.882;5.984;2024-01-11T00:10:14;58261.28;;;-141.14;100.00
83355;BME280;75108;50.882;5.984;2024-01-11T00:12:39;58235.50;;;-141.14;100.00
83355;BME280;75108;50.882;5.984;2024-01-11T00:15:05;58201.78;;;-141.14;100.00
83355;BME280;75108;50.882;5.984;2024-01-11T00:17:31;58247.41;;;-141.14;100.00
83355;BME280;75108;50.882;5.984;2024-01-11T00:19:57;58265.25;;;-141.14;100.00
83355;BME280;75108;50.882;5.984;2024-01-11T00:22:22;58237.50;;;-141.14;100.00
83355;BME280;75108;50.882;5.984;2024-01-11T00:24:48;58239.47;;;-141.14;100.00
83355;BME280;75108;50.882;5.984;2024-01-11T00:27:13;58211.69;;;-141.14;100.00
83355;BME280;75108;50.882;5.984;2024-01-11T00:29:39;58221.63;;;-141.14;100.00
83355;BME280;75108;50.882;5.984;2024-01-11T00:32:05;58243.44;;;-141.14;100.00
83355;BME280;75108;50.882;5.984;2024-01-11T00:34:30;58273.19;;;-141.14;100.00
83355;BME280;75108;50.882;5.984;2024-01-11T00:36:56;58241.47;;;-141.14;100.00
83355;BME280;75108;50.882;5.984;2024-01-11T00:39:21;58255.34;;;-141.14;100.00
83355;BME280;75108;50.882;5.984;2024-01-11T00:41:47;58217.66;;;-141.14;100.00
83355;BME280;75108;50.882;5.984;2024-01-11T00:44:12;58261.28;;;-141.14;100.00
83355;BME280;75108;50.882;5.984;2024-01-11T00:46:39;58227.56;;;-141.14;100.00
83355;BME280;75108;50.882;5.984;2024-01-11T00:49:05;58237.50;;;-141.14;100.00
83355;BME280;75108;50.882;5.984;2024-01-11T00:51:30;58233.53;;;-141.14;100.00
83355;BME280;75108;50.882;5.984;2024-01-11T00:53:56;58211.69;;;-141.14;100.00
83355;BME280;75108;50.882;5.984;2024-01-11T00:56:21;58235.50;;;-141.14;100.00
83355;BME280;75108;50.882;5.984;2024-01-11T00:58:47;58249.41;;;-141.14;100.00
83355;BME280;75108;50.882;5.984;2024-01-11T01:01:13;58239.47;;;-141.14;100.00
83355;BME280;75108;50.882;5.984;2024-01-11T01:03:39;58245.44;;;-141.14;100.00
83355;BME280;75108;50.882;5.984;2024-01-11T01:06:05;58217.66;;;-141.14;100.00
83355;BME280;75108;50.882;5.984;2024-01-11T01:08:31;58239.47;;;-141.14;100.00
83355;BME280;75108;50.882;5.984;2024-01-11T01:10:57;58225.59;;;-141.14;100.00
83355;BME280;75108;50.882;5.984;2024-01-11T01:13:23;58215.66;;;-141.14;100.00
83355;BME280;75108;50.882;5.984;2024-01-11T01:15:48;58225.59;;;-141.14;100.00
83355;BME280;75108;50.882;5.984;2024-01-11T01:18:14;58225.59;;;-141.14;100.00
83355;BME280;75108;50.882;5.984;2024-01-11T01:20:40;58215.66;;;-141.14;100.00
83355;BME280;75108;50.882;5.984;2024-01-11T01:23:05;58225.59;;;-141.14;100.00
83355;BME280;75108;50.882;5.984;2024-01-11T01:25:31;58223.59;;;-141.14;100.00
83355;BME280;75108;50.882;5.984;2024-01-11T01:27:58;58229.56;;;-141.14;100.00
83355;BME280;75108;50.882;5.984;2024-01-11T01:30:24;58215.66;;;-141.14;100.00
83355;BME280;75108;50.882;5.984;2024-01-11T01:33:02;58229.56;;;-141.14;100.00
83355;BME280;75108;50.882;5.984;2024-01-11T01:45:23;58203.75;;;-141.14;100.00
83355;BME280;75108;50.882;5.984;2024-01-11T01:47:48;58229.56;;;-141.14;100.00
83355;BME280;75108;50.882;5.984;2024-01-11T01:50:17;58213.69;;;-141.14;100.00
83355;BME280;75108;50.882;5.984;2024-01-11T02:03:03;58209.72;;;-141.14;100.00
83355;BME280;75108;50.882;5.984;2024-01-11T02:05:30;58217.66;;;-141.14;100.00
83355;BME280;75108;50.882;5.984;2024-01-11T02:08:01;58215.66;;;-141.14;100.00
83355;BME280;75108;50.882;5.984;2024-01-11T02:10:30;58237.50;;;-141.14;100.00
83355;BME280;75108;50.882;5.984;2024-01-11T02:12:58;58215.66;;;-141.14;100.00
83355;BME280;75108;50.882;5.984;2024-01-11T02:15:24;58223.59;;;-141.14;100.00
83355;BME280;75108;50.882;5.984;2024-01-11T02:17:49;58219.63;;;-141.14;100.00
83355;BME280;75108;50.882;5.984;2024-01-11T02:20:15;58225.59;;;-141.14;100.00
83355;BME280;75108;50.882;5.984;2024-01-11T02:22:43;58195.81;;;-141.14;100.00
83355;BME280;75108;50.882;5.984;2024-01-11T02:25:11;58243.44;;;-141.14;100.00
83355;BME280;75108;50.882;5.984;2024-01-11T02:27:49;58201.78;;;-141.14;100.00
83355;BME280;75108;50.882;5.984;2024-01-11T02:30:17;58205.75;;;-141.14;100.00
83355;BME280;75108;50.882;5.984;2024-01-11T02:33:34;58191.84;;;-141.14;100.00
83355;BME280;75108;50.882;5.984;2024-01-11T02:36:39;58199.78;;;-141.14;100.00
83355;BME280;75108;50.882;5.984;2024-01-11T02:39:05;58227.56;;;-141.14;100.00
83355;BME280;75108;50.882;5.984;2024-01-11T02:41:32;58191.84;;;-141.14;100.00
83355;BME280;75108;50.882;5.984;2024-01-11T02:43:58;58203.75;;;-141.14;100.00
83355;BME280;75108;50.882;5.984;2024-01-11T02:46:24;58197.81;;;-141.14;100.00
83355;BME280;75108;50.882;5.984;2024-01-11T02:48:49;58229.56;;;-141.14;100.00
83355;BME280;75108;50.882;5.984;2024-01-11T02:51:15;58247.41;;;-141.14;100.00
83355;BME280;75108;50.882;5.984;2024-01-11T02:53:40;58259.31;;;-141.14;100.00
83355;BME280;75108;50.882;5.984;2024-01-11T02:56:06;58225.59;;;-141.14;100.00
83355;BME280;75108;50.882;5.984;2024-01-11T02:58:31;58275.19;;;-141.14;100.00
83355;BME280;75108;50.882;5.984;2024-01-11T03:00:56;58245.44;;;-141.14;100.00
83355;BME280;75108;50.882;5.984;2024-01-11T03:03:22;58251.38;;;-141.14;100.00
83355;BME280;75108;50.882;5.984;2024-01-11T03:05:47;58263.28;;;-141.14;100.00
83355;BME280;75108;50.882;5.984;2024-01-11T03:08:13;58275.19;;;-141.14;100.00
83355;BME280;75108;50.882;5.984;2024-01-11T03:10:39;58271.22;;;-141.14;100.00
83355;BME280;75108;50.882;5.984;2024-01-11T03:13:06;58253.34;;;-141.14;100.00
83355;BME280;75108;50.882;5.984;2024-01-11T03:15:32;58253.34;;;-141.14;100.00
83355;BME280;75108;50.882;5.984;2024-01-11T03:17:57;58251.38;;;-141.14;100.00
83355;BME280;75108;50.882;5.984;2024-01-11T03:20:23;58257.31;;;-141.14;100.00
83355;BME280;75108;50.882;5.984;2024-01-11T03:22:50;58233.53;;;-141.14;100.00
83355;BME280;75108;50.882;5.984;2024-01-11T03:25:17;58253.34;;;-141.14;100.00
83355;BME280;75108;50.882;5.984;2024-01-11T03:27:42;58269.22;;;-141.14;100.00
83355;BME280;75108;50.882;5.984;2024-01-11T03:30:08;58233.53;;;-141.14;100.00
83355;BME280;75108;50.882;5.984;2024-01-11T03:32:33;58235.50;;;-141.14;100.00
83355;BME280;75108;50.882;5.984;2024-01-11T03:34:58;58231.53;;;-141.14;100.00
83355;BME280;75108;50.882;5.984;2024-01-11T03:37:24;58227.56;;;-141.14;100.00
83355;BME280;75108;50.882;5.984;2024-01-11T03:39:50;58257.31;;;-141.14;100.00
83355;BME280;75108;50.882;5.984;2024-01-11T03:42:15;58239.47;;;-141.14;100.00
83355;BME280;75108;50.882;5.984;2024-01-11T03:44:40;58221.63;;;-141.14;100.00
83355;BME280;75108;50.882;5.984;2024-01-11T03:47:06;58215.66;;;-141.14;100.00
83355;BME280;75108;50.882;5.984;2024-01-11T03:49:31;58231.53;;;-141.14;100.00
83355;BME280;75108;50.882;5.984;2024-01-11T03:51:57;58197.81;;;-141.14;100.00
83355;BME280;75108;50.882;5.984;2024-01-11T03:54:22;58215.66;;;-141.14;100.00
83355;BME280;75108;50.882;5.984;2024-01-11T03:56:48;58158.13;;;-141.14;100.00
83355;BME280;75108;50.882;5.984;2024-01-11T03:59:13;58211.69;;;-141.14;100.00
83355;BME280;75108;50.882;5.984;2024-01-11T04:01:42;58215.66;;;-141.14;100.00
83355;BME280;75108;50.882;5.984;2024-01-11T04:04:08;58174.00;;;-141.14;100.00
83355;BME280;75108;50.882;5.984;2024-01-11T04:06:33;58217.66;;;-141.14;100.00
83355;BME280;75108;50.882;5.984;2024-01-11T04:08:59;58172.00;;;-141.14;100.00
83355;BME280;75108;50.882;5.984;2024-01-11T04:11:28;58185.91;;;-141.14;100.00
83355;BME280;75108;50.882;5.984;2024-01-11T04:13:54;58183.91;;;-141.14;100.00
83355;BME280;75108;50.882;5.984;2024-01-11T04:16:20;58189.88;;;-141.14;100.00
83355;BME280;75108;50.882;5.984;2024-01-11T04:18:46;58164.09;;;-141.14;100.00
83355;BME280;75108;50.882;5.984;2024-01-11T04:23:46;58217.66;;;-141.14;100.00
83355;BME280;75108;50.882;5.984;2024-01-11T04:26:12;58193.84;;;-141.14;100.00
83355;BME280;75108;50.882;5.984;2024-01-11T04:28:37;58203.75;;;-141.14;100.00
83355;BME280;75108;50.882;5.984;2024-01-11T04:31:03;58195.81;;;-141.14;100.00
83355;BME280;75108;50.882;5.984;2024-01-11T04:33:28;58227.56;;;-141.14;100.00
83355;BME280;75108;50.882;5.984;2024-01-11T04:35:54;58209.72;;;-141.14;100.00
83355;BME280;75108;50.882;5.984;2024-01-11T04:38:19;58183.91;;;-141.14;100.00
83355;BME280;75108;50.882;5.984;2024-01-11T04:40:44;58179.94;;;-141.14;100.00
83355;BME280;75108;50.882;5.984;2024-01-11T04:43:10;58174.00;;;-141.14;100.00
83355;BME280;75108;50.882;5.984;2024-01-11T04:45:35;58191.84;;;-141.14;100.00
83355;BME280;75108;50.882;5.984;2024-01-11T04:48:01;58172.00;;;-141.14;100.00
83355;BME280;75108;50.882;5.984;2024-01-11T04:50:27;58205.75;;;-141.14;100.00
83355;BME280;75108;50.882;5.984;2024-01-11T04:52:52;58213.69;;;-141.14;100.00
83355;BME280;75108;50.882;5.984;2024-01-11T04:55:18;58187.88;;;-141.14;100.00
83355;BME280;75108;50.882;5.984;2024-01-11T04:57:43;58199.78;;;-141.14;100.00
83355;BME280;75108;50.882;5.984;2024-01-11T05:00:09;58175.97;;;-141.14;100.00
83355;BME280;75108;50.882;5.984;2024-01-11T05:02:35;58199.78;;;-141.14;100.00
83355;BME280;75108;50.882;5.984;2024-01-11T05:05:00;58172.00;;;-141.14;100.00
83355;BME280;75108;50.882;5.984;2024-01-11T05:07:27;58170.03;;;-141.14;100.00
83355;BME280;75108;50.882;5.984;2024-01-11T05:09:52;58170.03;;;-141.14;100.00
83355;BME280;75108;50.882;5.984;2024-01-11T05:12:18;58189.88;;;-141.14;100.00
83355;BME280;75108;50.882;5.984;2024-01-11T05:14:43;58203.75;;;-141.14;100.00
83355;BME280;75108;50.882;5.984;2024-01-11T05:17:09;58209.72;;;-141.14;100.00
83355;BME280;75108;50.882;5.984;2024-01-11T05:19:34;58175.97;;;-141.14;100.00
83355;BME280;75108;50.882;5.984;2024-01-11T05:21:59;58181.94;;;-141.14;100.00
83355;BME280;75108;50.882;5.984;2024-01-11T05:24:25;58211.69;;;-141.14;100.00
83355;BME280;75108;50.882;5.984;2024-01-11T05:26:50;58156.16;;;-141.14;100.00
83355;BME280;75108;50.882;5.984;2024-01-11T05:29:16;58179.94;;;-141.14;100.00
83355;BME280;75108;50.882;5.984;2024-01-11T05:31:41;58183.91;;;-141.14;100.00
83355;BME280;75108;50.882;5.984;2024-01-11T05:34:07;58179.94;;;-141.14;100.00
83355;BME280;75108;50.882;5.984;2024-01-11T05:36:34;58197.81;;;-141.14;100.00
83355;BME280;75108;50.882;5.984;2024-01-11T05:38:59;58187.88;;;-141.14;100.00
83355;BME280;75108;50.882;5.984;2024-01-11T05:41:25;58168.06;;;-141.14;100.00
83355;BME280;75108;50.882;5.984;2024-01-11T05:43:50;58207.72;;;-141.14;100.00
83355;BME280;75108;50.882;5.984;2024-01-11T05:46:15;58166.06;;;-141.14;100.00
83355;BME280;75108;50.882;5.984;2024-01-11T05:48:42;58193.84;;;-141.14;100.00
83355;BME280;75108;50.882;5.984;2024-01-11T05:51:08;58144.25;;;-141.14;100.00
83355;BME280;75108;50.882;5.984;2024-01-11T05:53:34;58164.09;;;-141.14;100.00
83355;BME280;75108;50.882;5.984;2024-01-11T05:56:01;58187.88;;;-141.14;100.00
83355;BME280;75108;50.882;5.984;2024-01-11T05:58:26;58189.88;;;-141.14;100.00
83355;BME280;75108;50.882;5.984;2024-01-11T06:00:52;58215.66;;;-141.14;100.00
83355;BME280;75108;50.882;5.984;2024-01-11T06:03:17;58172.00;;;-141.14;100.00
83355;BME280;75108;50.882;5.984;2024-01-11T06:05:42;58140.28;;;-141.14;100.00
83355;BME280;75108;50.882;5.984;2024-01-11T06:08:08;58156.16;;;-141.14;100.00
83355;BME280;75108;50.882;5.984;2024-01-11T06:10:33;58160.13;;;-141.14;100.00
83355;BME280;75108;50.882;5.984;2024-01-11T06:12:59;58181.94;;;-141.14;100.00
83355;BME280;75108;50.882;5.984;2024-01-11T06:15:24;58170.03;;;-141.14;100.00
83355;BME280;75108;50.882;5.984;2024-01-11T06:17:49;58179.94;;;-141.14;100.00
83355;BME280;75108;50.882;5.984;2024-01-11T06:20:15;58166.06;;;-141.14;100.00
83355;BME280;75108;50.882;5.984;2024-01-11T06:22:41;58197.81;;;-141.14;100.00
83355;BME280;75108;50.882;5.984;2024-01-11T06:25:07;58187.88;;;-141.14;100.00
83355;BME280;75108;50.882;5.984;2024-01-11T06:27:32;58172.00;;;-141.14;100.00
83355;BME280;75108;50.882;5.984;2024-01-11T06:29:57;58170.03;;;-141.14;100.00
83355;BME280;75108;50.882;5.984;2024-01-11T06:32:24;58213.69;;;-141.14;100.00
83355;BME280;75108;50.882;5.984;2024-01-11T06:34:49;58181.94;;;-141.14;100.00
83355;BME280;75108;50.882;5.984;2024-01-11T06:37:14;58179.94;;;-141.14;100.00
83355;BME280;75108;50.882;5.984;2024-01-11T06:39:40;58175.97;;;-141.14;100.00
83355;BME280;75108;50.882;5.984;2024-01-11T06:42:05;58201.78;;;-141.14;100.00
83355;BME280;75108;50.882;5.984;2024-01-11T06:44:31;58177.97;;;-141.14;100.00
83355;BME280;75108;50.882;5.984;2024-01-11T06:46:56;58195.81;;;-141.14;100.00
83355;BME280;75108;50.882;5.984;2024-01-11T06:49:22;58191.84;;;-141.14;100.00
83355;BME280;75108;50.882;5.984;2024-01-11T06:51:47;58189.88;;;-141.14;100.00
83355;BME280;75108;50.882;5.984;2024-01-11T06:54:12;58187.88;;;-141.14;100.00
83355;BME280;75108;50.882;5.984;2024-01-11T06:56:38;58195.81;;;-141.14;100.00
83355;BME280;75108;50.882;5.984;2024-01-11T06:59:03;58152.19;;;-141.14;100.00
83355;BME280;75108;50.882;5.984;2024-01-11T07:01:29;58164.09;;;-141.14;100.00
83355;BME280;75108;50.882;5.984;2024-01-11T07:03:55;58195.81;;;-141.14;100.00
83355;BME280;75108;50.882;5.984;2024-01-11T07:06:20;58160.13;;;-141.14;100.00
83355;BME280;75108;50.882;5.984;2024-01-11T07:08:45;58175.97;;;-141.14;100.00
83355;BME280;75108;50.882;5.984;2024-01-11T07:11:11;58207.72;;;-141.14;100.00
83355;BME280;75108;50.882;5.984;2024-01-11T07:13:36;58160.13;;;-141.14;100.00
83355;BME280;75108;50.882;5.984;2024-01-11T07:16:03;58177.97;;;-141.14;100.00
83355;BME280;75108;50.882;5.984;2024-01-11T07:18:29;58170.03;;;-141.14;100.00
83355;BME280;75108;50.882;5.984;2024-01-11T07:20:56;58172.00;;;-141.14;100.00
83355;BME280;75108;50.882;5.984;2024-01-11T07:23:23;58181.94;;;-141.14;100.00
83355;BME280;75108;50.882;5.984;2024-01-11T07:25:49;58175.97;;;-141.14;100.00
83355;BME280;75108;50.882;5.984;2024-01-11T07:28:14;58179.94;;;-141.14;100.00
83355;BME280;75108;50.882;5.984;2024-01-11T07:30:40;58138.28;;;-141.14;100.00
83355;BME280;75108;50.882;5.984;2024-01-11T07:33:06;58195.81;;;-141.14;100.00
83355;BME280;75108;50.882;5.984;2024-01-11T07:35:31;58185.91;;;-141.14;100.00
83355;BME280;75108;50.882;5.984;2024-01-11T07:37:57;58154.16;;;-141.14;100.00
83355;BME280;75108;50.882;5.984;2024-01-11T07:40:22;58158.13;;;-141.14;100.00
83355;BME280;75108;50.882;5.984;2024-01-11T07:42:48;58205.75;;;-141.14;100.00
83355;BME280;75108;50.882;5.984;2024-01-11T07:45:15;58170.03;;;-141.14;100.00
83355;BME280;75108;50.882;5.984;2024-01-11T07:47:40;58181.94;;;-141.14;100.00
83355;BME280;75108;50.882;5.984;2024-01-11T07:50:06;58168.06;;;-141.14;100.00
83355;BME280;75108;50.882;5.984;2024-01-11T07:52:33;58191.84;;;-141.14;100.00
83355;BME280;75108;50.882;5.984;2024-01-11T07:54:58;58168.06;;;-141.14;100.00
83355;BME280;75108;50.882;5.984;2024-01-11T07:57:34;58195.81;;;-141.14;100.00
83355;BME280;75108;50.882;5.984;2024-01-11T08:00:00;58168.06;;;-141.14;100.00
83355;BME280;75108;50.882;5.984;2024-01-11T08:02:26;58175.97;;;-141.14;100.00
83355;BME280;75108;50.882;5.984;2024-01-11T08:04:51;58177.97;;;-141.14;100.00
83355;BME280;75108;50.882;5.984;2024-01-11T08:07:17;58164.09;;;-141.14;100.00
83355;BME280;75108;50.882;5.984;2024-01-11T08:09:42;58195.81;;;-141.14;100.00
83355;BME280;75108;50.882;5.984;2024-01-11T08:12:14;58195.81;;;-141.14;100.00
83355;BME280;75108;50.882;5.984;2024-01-11T08:14:40;58177.97;;;-141.14;100.00
83355;BME280;75108;50.882;5.984;2024-01-11T08:17:08;58177.97;;;-141.14;100.00
83355;BME280;75108;50.882;5.984;2024-01-11T08:19:34;58177.97;;;-141.14;100.00
83355;BME280;75108;50.882;5.984;2024-01-11T08:22:00;58166.06;;;-141.14;100.00
83355;BME280;75108;50.882;5.984;2024-01-11T08:24:26;58185.91;;;-141.14;100.00
83355;BME280;75108;50.882;5.984;2024-01-11T08:26:52;58193.84;;;-141.14;100.00
83355;BME280;75108;50.882;5.984;2024-01-11T08:29:17;58191.84;;;-141.14;100.00
83355;BME280;75108;50.882;5.984;2024-01-11T08:31:46;58215.66;;;-141.14;100.00
83355;BME280;75108;50.882;5.984;2024-01-11T08:34:12;58187.88;;;-141.14;100.00
83355;BME280;75108;50.882;5.984;2024-01-11T08:36:37;58201.78;;;-141.14;100.00
83355;BME280;75108;50.882;5.984;2024-01-11T08:39:06;58209.72;;;-141.14;100.00
